Time;durP1;ratioP1;P1;durP2;ratioP2;P2;SDS_P1;SDS_P2;PMS_P1;PMS_P2;Temp;Humidity;BMP_temperature;BMP_pressure;BME280_temperature;BME280_humidity;BME280_pressure;Samples;Min_cycle;Max_cycle;Signal;HPM_P1;HPM_P2
2022/09/20 00:00:31;;;;;;;13.55;1.13;;;;;;;9.39;100.00;101806.59;2088261;28;30257;-79
2022/09/20 00:01:34;;;;;;;11.93;0.90;;;;;;;9.41;100.00;101807.47;2087432;28;32404;-79
2022/09/20 00:02:36;;;;;;;14.25;0.90;;;;;;;9.40;100.00;101805.66;2087408;28;36110;-79
2022/09/20 00:03:45;;;;;;;8.10;0.75;;;;;;;9.39;100.00;101803.03;2087544;28;31389;-79
2022/09/20 00:04:48;;;;;;;13.05;1.15;;;;;;;9.37;100.00;101811.06;2094196;28;38988;-79
2022/09/20 00:05:50;;;;;;;11.18;0.93;;;;;;;9.36;100.00;101801.25;2088616;28;21025;-79
2022/09/20 00:06:51;;;;;;;6.57;0.40;;;;;;;9.33;100.00;101810.19;2087130;28;32388;-79
2022/09/20 00:07:53;;;;;;;13.65;0.90;;;;;;;9.33;100.00;101809.25;2087472;28;30221;-79
2022/09/20 00:08:56;;;;;;;13.40;0.70;;;;;;;9.31;100.00;101805.72;2088429;28;29868;-79
2022/09/20 00:09:58;;;;;;;14.52;0.93;;;;;;;9.29;100.00;101800.38;2087367;28;34246;-79
2022/09/20 00:11:06;;;;;;;8.93;0.73;;;;;;;9.28;100.00;101803.06;2104675;28;20045;-79
2022/09/20 00:12:08;;;;;;;10.02;0.80;;;;;;;9.24;100.00;101801.28;2102330;28;33829;-79
2022/09/20 00:13:12;;;;;;;9.95;0.65;;;;;;;9.18;100.00;101803.09;2087945;28;37816;-79
2022/09/20 00:14:15;;;;;;;7.15;0.50;;;;;;;9.16;100.00;101801.31;2087144;28;29030;-79
2022/09/20 00:15:17;;;;;;;9.98;0.75;;;;;;;9.12;100.00;101800.44;2087105;28;36735;-79
2022/09/20 00:16:33;;;;;;;7.93;0.70;;;;;;;9.06;100.00;101802.22;2087952;28;30189;-79
2022/09/20 00:17:35;;;;;;;13.65;0.90;;;;;;;9.00;100.00;101800.47;2087862;28;40034;-79
2022/09/20 00:18:37;;;;;;;11.13;0.80;;;;;;;8.97;100.00;101803.16;2095168;28;40943;-78
2022/09/20 00:19:39;;;;;;;12.50;0.80;;;;;;;8.95;100.00;101810.28;2095416;28;23944;-79
2022/09/20 00:20:49;;;;;;;9.18;0.60;;;;;;;8.92;100.00;101811.19;2088457;28;20904;-79
2022/09/20 00:21:51;;;;;;;12.05;1.02;;;;;;;8.89;100.00;101800.50;2087761;28;28598;-79
2022/09/20 00:22:52;;;;;;;11.48;0.90;;;;;;;8.88;100.00;101803.16;2087873;28;32685;-79
2022/09/20 00:23:58;;;;;;;15.00;0.80;;;;;;;8.86;100.00;101802.28;2087631;28;40862;-79
2022/09/20 00:25:00;;;;;;;12.32;1.40;;;;;;;8.89;100.00;101799.63;2088184;28;30367;-79
2022/09/20 00:26:03;;;;;;;12.18;1.45;;;;;;;8.87;100.00;101804.97;2087389;28;34621;-79
2022/09/20 00:27:05;;;;;;;12.65;0.98;;;;;;;8.90;100.00;101796.03;2087451;28;29385;-79
2022/09/20 00:28:10;;;;;;;14.23;1.35;;;;;;;8.88;100.00;101795.16;2087745;28;20937;-79
2022/09/20 00:29:12;;;;;;;10.05;0.50;;;;;;;8.86;100.00;101800.50;2087679;28;29768;-79
2022/09/20 00:30:15;;;;;;;7.95;0.60;;;;;;;8.82;100.00;101792.50;2087949;28;27259;-79
2022/09/20 00:31:18;;;;;;;12.07;0.82;;;;;;;8.81;100.00;101802.31;2087987;28;35194;-78
2022/09/20 00:32:19;;;;;;;12.75;0.80;;;;;;;8.78;100.00;101796.97;2087700;28;34008;-79
2022/09/20 00:33:23;;;;;;;11.15;1.10;;;;;;;8.79;100.00;101806.75;2087929;28;29295;-79
2022/09/20 00:35:48;;;;;;;14.95;1.10;;;;;;;8.73;100.00;101807.63;2087911;28;32405;-79
2022/09/20 00:36:50;;;;;;;12.52;1.25;;;;;;;8.71;100.00;101808.56;2086893;28;38092;-79
2022/09/20 00:37:52;;;;;;;16.13;1.10;;;;;;;8.72;100.00;101815.66;2087079;28;37436;-79
2022/09/20 00:39:00;;;;;;;10.45;0.77;;;;;;;8.70;100.00;101807.63;2103600;28;30226;-79
2022/09/20 00:40:05;;;;;;;16.33;1.35;;;;;;;8.69;100.00;101805.88;2101780;28;38339;-79
2022/09/20 00:41:07;;;;;;;10.52;0.85;;;;;;;8.70;100.00;101812.09;2088163;28;20119;-79
2022/09/20 00:42:13;;;;;;;13.90;1.05;;;;;;;8.69;100.00;101813.88;2087698;28;38767;-79
2022/09/20 00:43:17;;;;;;;13.50;0.90;;;;;;;8.62;100.00;101809.44;2089221;28;29792;-77
2022/09/20 00:44:55;;;;;;;13.70;1.00;;;;;;;8.61;100.00;101815.66;2088852;28;33389;-79
2022/09/20 00:45:58;;;;;;;17.30;0.93;;;;;;;8.59;100.00;101809.44;2089065;28;40646;-79
2022/09/20 00:47:01;;;;;;;11.35;0.90;;;;;;;8.58;100.00;101818.34;2088834;28;30580;-79
2022/09/20 00:48:32;;;;;;;7.63;0.68;;;;;;;8.56;100.00;101812.09;2089242;28;33611;-79
2022/09/20 00:49:36;;;;;;;13.20;1.05;;;;;;;8.53;100.00;101809.47;2088506;28;20852;-78
2022/09/20 00:50:44;;;;;;;11.00;0.75;;;;;;;8.53;100.00;101817.47;2089812;28;40064;-79
2022/09/20 00:52:06;;;;;;;15.93;1.00;;;;;;;8.51;100.00;101817.47;2088276;28;33464;-78
2022/09/20 00:53:31;;;;;;;10.95;0.80;;;;;;;8.50;100.00;101825.47;2088585;28;32841;-79
2022/09/20 00:54:33;;;;;;;14.48;1.20;;;;;;;8.49;100.00;101821.00;2089305;28;29987;-79
2022/09/20 00:55:39;;;;;;;10.93;1.00;;;;;;;8.52;100.00;101815.66;2088998;28;31696;-78
2022/09/20 00:56:42;;;;;;;14.93;0.98;;;;;;;8.52;100.00;101818.34;2089731;28;30181;-79
2022/09/20 00:57:45;;;;;;;6.20;0.68;;;;;;;8.52;100.00;101813.00;2088982;28;20054;-78
2022/09/20 00:59:05;;;;;;;7.60;0.80;;;;;;;8.53;100.00;101821.00;2088987;28;37326;-78
2022/09/20 01:00:10;;;;;;;17.40;0.95;;;;;;;8.54;100.00;101816.56;2089268;28;32001;-78
2022/09/20 01:01:12;;;;;;;11.02;0.80;;;;;;;8.52;100.00;101819.22;2088677;28;28563;-79
2022/09/20 01:02:21;;;;;;;9.20;0.73;;;;;;;8.53;100.00;101818.34;2088289;28;32618;-78
2022/09/20 01:03:30;;;;;;;10.27;1.13;;;;;;;8.50;100.00;101821.00;2088515;28;36127;-78
2022/09/20 01:04:34;;;;;;;11.10;0.90;;;;;;;8.49;100.00;101821.91;2090397;28;36902;-78
2022/09/20 01:05:38;;;;;;;11.27;0.80;;;;;;;8.45;100.00;101822.78;2095419;28;26591;-78
2022/09/20 01:06:43;;;;;;;15.95;1.00;;;;;;;8.48;100.00;101822.78;2089318;28;26061;-78
2022/09/20 01:07:49;;;;;;;13.07;0.75;;;;;;;8.42;100.00;101822.81;2089182;28;34695;-78
2022/09/20 01:08:55;;;;;;;14.10;1.10;;;;;;;8.38;100.00;101829.88;2096836;28;32677;-78
2022/09/20 01:09:57;;;;;;;18.55;1.38;;;;;;;8.39;100.00;101836.97;2096082;28;29258;-78
2022/09/20 01:10:59;;;;;;;13.93;1.23;;;;;;;8.33;100.00;101828.09;2088783;28;36093;-78
2022/09/20 01:12:08;;;;;;;20.02;1.52;;;;;;;8.35;100.00;101824.53;2088802;28;38161;-78
2022/09/20 01:13:12;;;;;;;16.55;1.02;;;;;;;8.35;100.00;101827.19;2088523;28;42496;-78
2022/09/20 01:14:17;;;;;;;9.57;0.77;;;;;;;8.33;100.00;101828.97;2104670;23;20217;-75
2022/09/20 01:15:22;;;;;;;12.45;1.05;;;;;;;8.34;100.00;101830.75;2081540;28;42497;-76
2022/09/20 01:16:29;;;;;;;10.20;0.98;;;;;;;8.36;100.00;101829.00;2081211;28;20042;-76
2022/09/20 01:17:34;;;;;;;17.70;1.05;;;;;;;8.37;100.00;101835.22;2080388;28;37241;-76
2022/09/20 01:18:38;;;;;;;12.85;1.02;;;;;;;8.35;100.00;101832.53;2074162;28;20039;-76
2022/09/20 01:20:05;;;;;;;18.75;1.30;;;;;;;8.36;100.00;101830.75;2081117;28;22147;-75
2022/09/20 01:21:08;;;;;;;14.48;1.13;;;;;;;8.29;100.00;101835.22;2080971;28;30017;-76
2022/09/20 01:22:32;;;;;;;12.35;0.73;;;;;;;8.25;100.00;101836.09;2080938;28;20119;-76
2022/09/20 01:23:37;;;;;;;13.15;1.08;;;;;;;8.25;100.00;101836.09;2080307;28;37801;-76
2022/09/20 01:25:05;;;;;;;14.75;1.20;;;;;;;8.19;100.00;101828.09;2080641;28;35456;-75
2022/09/20 01:26:33;;;;;;;9.82;0.82;;;;;;;8.17;100.00;101837.88;2081555;28;20163;-76
2022/09/20 01:27:42;;;;;;;8.95;1.00;;;;;;;8.18;100.00;101836.97;2080554;28;31122;-76
2022/09/20 01:28:48;;;;;;;18.00;1.08;;;;;;;8.13;100.00;101828.97;2080771;28;20042;-76
2022/09/20 01:30:05;;;;;;;19.88;1.00;;;;;;;8.16;100.00;101838.75;2079833;28;39217;-76
2022/09/20 01:31:24;;;;;;;13.55;1.40;;;;;;;8.10;100.00;101834.28;2074759;28;33037;-75
2022/09/20 01:32:38;;;;;;;11.52;0.68;;;;;;;8.08;100.00;101837.84;2076110;28;24667;-76
2022/09/20 01:33:55;;;;;;;15.15;1.00;;;;;;;8.03;100.00;101841.38;2074996;28;39177;-75
2022/09/20 01:35:00;;;;;;;10.68;0.75;;;;;;;7.99;100.00;101844.06;2075042;28;43773;-75
2022/09/20 01:36:04;;;;;;;13.82;1.00;;;;;;;7.97;100.00;101840.50;2072085;28;39322;-75
2022/09/20 01:37:25;;;;;;;15.38;0.90;;;;;;;7.96;100.00;101839.59;2072300;28;40784;-76
2022/09/20 01:39:00;;;;;;;14.68;1.35;;;;;;;7.91;100.00;101840.47;2080475;28;31407;-75
2022/09/20 01:40:25;;;;;;;16.90;1.10;;;;;;;7.91;100.00;101844.00;2080172;28;31898;-75
2022/09/20 01:41:52;;;;;;;15.98;1.20;;;;;;;7.86;100.00;101848.47;2080481;28;41904;-78
2022/09/20 01:43:31;;;;;;;14.15;0.73;;;;;;;7.81;100.00;101844.91;2071502;28;32158;-75
2022/09/20 01:45:19;;;;;;;13.18;1.10;;;;;;;7.79;100.00;101846.69;2071424;28;32277;-75
2022/09/20 01:46:35;;;;;;;13.35;1.20;;;;;;;7.75;100.00;101844.84;2073078;28;22222;-75
2022/09/20 01:47:56;;;;;;;11.13;0.90;;;;;;;7.73;100.00;101842.19;2072303;28;36155;-75
2022/09/20 01:49:54;;;;;;;18.38;1.35;;;;;;;7.65;100.00;101850.16;2066767;28;34243;-75
2022/09/20 01:51:14;;;;;;;16.75;1.42;;;;;;;7.69;100.00;101847.53;2072493;28;36795;-76
2022/09/20 01:52:24;;;;;;;15.93;0.90;;;;;;;7.64;100.00;101851.06;2072343;28;34598;-75
2022/09/20 01:54:17;;;;;;;16.77;1.13;;;;;;;7.71;100.00;101854.63;2072065;28;40977;-76
2022/09/20 01:55:37;;;;;;;13.40;1.02;;;;;;;7.62;100.00;101847.47;2071587;28;36702;-75
2022/09/20 01:57:32;;;;;;;11.18;1.00;;;;;;;7.65;100.00;101855.50;2072300;28;41747;-75
2022/09/20 01:58:53;;;;;;;11.80;0.80;;;;;;;7.60;100.00;101851.91;2072518;28;30123;-75
2022/09/20 02:01:03;;;;;;;11.95;0.60;;;;;;;7.55;100.00;101852.78;2072419;28;20042;-78
2022/09/20 02:02:39;;;;;;;7.55;0.43;;;;;;;7.51;100.00;101849.22;2071746;28;38161;-78
2022/09/20 02:04:17;;;;;;;12.23;0.82;;;;;;;7.47;100.00;101855.44;2072487;28;31715;-77
2022/09/20 02:06:10;;;;;;;11.80;0.82;;;;;;;7.43;100.00;101841.19;2071853;28;34740;-75
2022/09/20 02:07:47;;;;;;;10.70;0.82;;;;;;;7.41;100.00;101850.97;2070084;28;37187;-75
2022/09/20 02:09:35;;;;;;;11.05;0.88;;;;;;;7.40;100.00;101848.28;2071713;28;38450;-75
2022/09/20 02:11:09;;;;;;;11.13;1.05;;;;;;;7.46;100.00;101858.97;2071692;28;31630;-75
2022/09/20 02:12:40;;;;;;;13.93;1.00;;;;;;;7.53;100.00;101858.09;2070487;28;40198;-75
2022/09/20 02:14:27;;;;;;;16.70;1.48;;;;;;;7.49;100.00;101847.44;2074799;28;34741;-75
2022/09/20 02:16:19;;;;;;;20.52;1.63;;;;;;;7.55;100.00;101848.34;2072301;28;32666;-75
2022/09/20 02:18:02;;;;;;;13.70;0.93;;;;;;;7.60;100.00;101840.38;2072342;28;32360;-75
2022/09/20 02:19:06;;;;;;;15.77;1.60;;;;;;;7.62;100.00;101847.47;2078053;28;38117;-74
2022/09/20 02:20:41;;;;;;;17.00;1.20;;;;;;;7.60;100.00;101848.38;2072372;28;33733;-75
2022/09/20 02:22:30;;;;;;;12.85;0.93;;;;;;;7.64;100.00;101840.41;2072113;28;42110;-75
2022/09/20 02:24:13;;;;;;;11.75;0.93;;;;;;;7.61;100.00;101843.06;2072535;28;35292;-75
2022/09/20 02:25:53;;;;;;;12.35;0.70;;;;;;;7.60;100.00;101840.38;2072973;28;20050;-75
2022/09/20 02:27:24;;;;;;;17.45;1.38;;;;;;;7.65;100.00;101836.84;2071780;28;40533;-75
2022/09/20 02:29:12;;;;;;;10.07;0.77;;;;;;;7.61;100.00;101829.72;2071909;28;27901;-75
2022/09/20 02:30:41;;;;;;;7.03;0.52;;;;;;;7.57;100.00;101838.59;2071402;28;34577;-75
2022/09/20 02:32:25;;;;;;;11.45;0.90;;;;;;;7.54;100.00;101835.03;2072195;28;38085;-75
2022/09/20 02:34:12;;;;;;;18.20;1.17;;;;;;;7.51;100.00;101851.00;2073122;28;20091;-75
2022/09/20 02:36:02;;;;;;;10.65;0.95;;;;;;;7.49;100.00;101845.66;2071285;28;34083;-75
2022/09/20 02:37:25;;;;;;;8.32;0.68;;;;;;;7.50;100.00;101850.13;2070737;28;28619;-75
2022/09/20 02:39:01;;;;;;;12.82;0.77;;;;;;;7.56;100.00;101858.13;2072087;28;37030;-75
2022/09/20 02:40:59;;;;;;;11.63;1.15;;;;;;;7.58;100.00;101859.03;2071713;28;37594;-75
2022/09/20 02:42:40;;;;;;;15.20;1.38;;;;;;;7.65;100.00;101863.50;2079347;28;33856;-75
2022/09/20 02:44:23;;;;;;;14.15;1.02;;;;;;;7.72;100.00;101858.19;2082837;28;20120;-75
2022/09/20 02:45:40;;;;;;;8.98;0.90;;;;;;;7.66;100.00;101856.38;2078846;28;36052;-75
2022/09/20 02:47:19;;;;;;;15.10;1.05;;;;;;;7.64;100.00;101859.06;2085650;28;30510;-75
2022/09/20 02:48:35;;;;;;;13.82;1.00;;;;;;;7.64;100.00;101863.47;2071714;28;40260;-75
2022/09/20 02:50:16;;;;;;;12.48;1.58;;;;;;;7.55;100.00;101861.66;2071215;28;35194;-75
2022/09/20 02:51:21;;;;;;;12.32;0.85;;;;;;;7.54;100.00;101853.69;2070654;28;20803;-75
2022/09/20 02:53:00;;;;;;;14.15;0.90;;;;;;;7.49;100.00;101853.66;2071173;28;32357;-75
2022/09/20 02:54:41;;;;;;;14.50;0.95;;;;;;;7.54;100.00;101865.22;2071897;28;38340;-75
2022/09/20 02:56:16;;;;;;;;;;;;;;;7.52;100.00;101863.41;2071676;28;33920;-75
2022/09/20 02:57:42;;;;;;;11.50;0.98;;;;;;;7.56;100.00;101873.22;2072307;28;31429;-75
2022/09/20 02:58:56;;;;;;;15.48;1.52;;;;;;;7.52;100.00;101866.09;2071201;28;34512;-75
2022/09/20 03:00:09;;;;;;;12.25;1.00;;;;;;;7.51;100.00;101862.53;2071458;28;37085;-75
2022/09/20 03:01:23;;;;;;;14.02;1.05;;;;;;;7.50;100.00;101868.78;2071932;28;40714;-75
2022/09/20 03:03:09;;;;;;;16.67;1.10;;;;;;;7.53;100.00;101868.75;2071927;28;34301;-75
2022/09/20 03:04:43;;;;;;;17.25;1.38;;;;;;;7.52;100.00;101861.66;2071753;28;30131;-75
2022/09/20 03:06:05;;;;;;;12.00;1.50;;;;;;;7.64;100.00;101864.41;2063419;28;22745;-75
2022/09/20 03:07:51;;;;;;;16.17;1.27;;;;;;;7.63;100.00;101862.59;2073458;28;20045;-75
2022/09/20 03:09:29;;;;;;;14.00;1.10;;;;;;;7.72;100.00;101872.41;2072526;28;20030;-75
2022/09/20 03:11:07;;;;;;;16.52;1.35;;;;;;;7.95;100.00;101866.25;2071357;28;39472;-75
2022/09/20 03:12:45;;;;;;;11.60;1.02;;;;;;;7.96;100.00;101873.38;2071154;28;36943;-75
2022/09/20 03:14:14;;;;;;;21.05;1.83;;;;;;;7.94;100.00;101868.03;2074825;28;38012;-75
2022/09/20 03:15:37;;;;;;;18.08;1.25;;;;;;;8.00;100.00;101870.72;2076503;28;20842;-75
2022/09/20 03:17:04;;;;;;;16.88;1.73;;;;;;;8.05;100.00;101862.72;2071864;28;32616;-75
2022/09/20 03:18:15;;;;;;;9.93;1.40;;;;;;;8.04;100.00;101871.63;2071981;28;20605;-74
2022/09/20 03:19:50;;;;;;;9.98;1.15;;;;;;;8.06;100.00;101866.28;2073926;28;31059;-75
2022/09/20 03:21:35;;;;;;;9.88;1.00;;;;;;;8.12;100.00;101863.63;2073968;28;41308;-75
2022/09/20 03:23:08;;;;;;;12.23;1.35;;;;;;;8.15;100.00;101874.31;2071984;28;34956;-75
2022/09/20 03:24:33;;;;;;;22.83;1.88;;;;;;;8.23;100.00;101875.22;2079113;28;37186;-75
2022/09/20 03:26:20;;;;;;;14.77;1.20;;;;;;;8.25;100.00;101868.09;2075705;28;34629;-75
2022/09/20 03:27:40;;;;;;;10.93;0.85;;;;;;;8.25;100.00;101877.88;2071146;28;34514;-75
2022/09/20 03:29:02;;;;;;;12.32;1.02;;;;;;;8.24;100.00;101874.34;2072238;28;35202;-75
2022/09/20 03:30:43;;;;;;;17.45;1.25;;;;;;;8.27;100.00;101868.97;2071241;28;39165;-75
2022/09/20 03:32:13;;;;;;;16.20;1.58;;;;;;;8.32;100.00;101869.88;2070508;28;37234;-75
2022/09/20 03:33:55;;;;;;;14.15;1.10;;;;;;;8.40;100.00;101873.47;2071875;28;35210;-75
2022/09/20 03:35:32;;;;;;;13.55;1.30;;;;;;;8.37;100.00;101864.56;2072062;28;35361;-76
2022/09/20 03:36:58;;;;;;;17.77;1.67;;;;;;;8.43;100.00;101883.28;2070403;28;32812;-76
2022/09/20 03:38:36;;;;;;;9.50;0.88;;;;;;;8.40;100.00;101884.13;2078453;28;38251;-76
2022/09/20 03:40:05;;;;;;;13.07;1.30;;;;;;;8.43;100.00;101882.41;2070986;28;38866;-76
2022/09/20 03:41:33;;;;;;;16.67;1.33;;;;;;;8.50;100.00;101884.19;2071717;28;33884;-76
2022/09/20 03:42:46;;;;;;;11.38;0.77;;;;;;;8.48;100.00;101883.28;2071977;28;40045;-76
2022/09/20 03:43:56;;;;;;;13.32;1.65;;;;;;;8.49;100.00;101874.38;2075455;28;30975;-76
2022/09/20 03:45:33;;;;;;;7.60;1.17;;;;;;;8.52;100.00;101875.28;2079404;28;35663;-76
2022/09/20 03:46:47;;;;;;;11.98;1.10;;;;;;;8.59;100.00;101873.50;2079861;28;30190;-76
2022/09/20 03:48:32;;;;;;;14.13;1.40;;;;;;;8.58;100.00;101866.41;2080258;28;20100;-76
2022/09/20 03:50:20;;;;;;;12.90;1.30;;;;;;;8.60;100.00;101876.19;2079946;28;32801;-76
2022/09/20 03:51:56;;;;;;;15.02;1.48;;;;;;;8.58;100.00;101869.06;2079821;28;40228;-76
2022/09/20 03:53:28;;;;;;;9.90;0.90;;;;;;;8.61;100.00;101871.72;2080012;28;31185;-76
2022/09/20 03:54:41;;;;;;;7.18;0.63;;;;;;;8.62;100.00;101872.63;2077472;28;36029;-76
2022/09/20 03:56:14;;;;;;;10.85;0.88;;;;;;;8.62;100.00;101876.19;2081006;28;35091;-76
2022/09/20 03:58:20;;;;;;;11.18;0.80;;;;;;;8.62;100.00;101872.63;2082432;28;31397;-76
2022/09/20 04:00:02;;;;;;;7.15;0.63;;;;;;;8.62;100.00;101877.97;2086669;28;31798;-76
2022/09/20 04:01:49;;;;;;;10.63;1.08;;;;;;;8.62;100.00;101877.97;2080062;28;20078;-76
2022/09/20 04:03:16;;;;;;;8.98;0.77;;;;;;;8.60;100.00;101877.97;2080314;28;32244;-75
2022/09/20 04:04:48;;;;;;;12.63;0.82;;;;;;;8.56;100.00;101878.84;2080284;28;20034;-76
2022/09/20 04:06:37;;;;;;;11.27;0.90;;;;;;;8.56;100.00;101878.84;2079843;28;41442;-76
2022/09/20 04:08:38;;;;;;;5.07;0.85;;;;;;;8.51;100.00;101873.50;2079154;28;32634;-75
2022/09/20 04:10:15;;;;;;;8.85;0.60;;;;;;;8.50;100.00;101876.16;2087551;28;36064;-75
2022/09/20 04:11:23;;;;;;;7.68;0.60;;;;;;;8.45;100.00;101869.94;2079857;28;35100;-76
2022/09/20 04:13:15;;;;;;;5.65;0.40;;;;;;;8.44;100.00;101874.38;2079739;28;39570;-75
2022/09/20 04:15:01;;;;;;;6.45;0.50;;;;;;;8.40;100.00;101868.13;2079763;28;20075;-75
2022/09/20 04:16:41;;;;;;;7.43;0.60;;;;;;;8.42;100.00;101876.16;2079181;28;32692;-75
2022/09/20 04:18:01;;;;;;;11.75;0.80;;;;;;;8.44;100.00;101876.19;2086524;28;37871;-76
2022/09/20 04:19:28;;;;;;;12.27;0.93;;;;;;;8.46;100.00;101877.06;2082066;28;40833;-75
2022/09/20 04:20:55;;;;;;;6.47;0.47;;;;;;;8.46;100.00;101880.63;2071130;28;33795;-75
2022/09/20 04:21:59;;;;;;;13.48;1.00;;;;;;;8.48;100.00;101881.50;2072592;28;32918;-75
2022/09/20 04:23:46;;;;;;;8.15;0.80;;;;;;;8.49;100.00;101880.63;2073038;28;30947;-75
2022/09/20 04:24:59;;;;;;;8.40;0.93;;;;;;;8.50;100.00;101878.84;2087220;28;20057;-75
2022/09/20 04:26:02;;;;;;;7.25;0.70;;;;;;;8.49;100.00;101877.03;2079312;28;32387;-75
2022/09/20 04:27:36;;;;;;;11.07;0.93;;;;;;;8.47;100.00;101878.81;2078634;28;35164;-75
2022/09/20 04:28:53;;;;;;;8.95;0.63;;;;;;;8.45;100.00;101886.81;2079453;28;21862;-75
2022/09/20 04:30:29;;;;;;;9.82;1.05;;;;;;;8.41;100.00;101891.25;2083880;28;25657;-75
2022/09/20 04:31:45;;;;;;;8.68;1.00;;;;;;;8.39;100.00;101895.69;2078705;28;35665;-75
2022/09/20 04:33:20;;;;;;;11.48;0.93;;;;;;;8.34;100.00;101894.78;2079474;28;38334;-75
2022/09/20 04:36:27;;;;;;;11.10;0.77;;;;;;;8.29;100.00;101885.91;2071179;28;38080;-75
2022/09/20 04:36:28;;;;;;;12.18;1.02;;;;;;;8.32;100.00;101898.34;2073027;28;20055;-75
2022/09/20 04:37:37;;;;;;;8.00;0.75;;;;;;;8.21;100.00;101893.00;2079507;28;28394;-75
2022/09/20 04:38:39;;;;;;;5.43;0.57;;;;;;;8.16;100.00;101900.09;2078950;28;33245;-75
2022/09/20 04:39:58;;;;;;;7.03;0.80;;;;;;;8.14;100.00;101899.22;2079675;28;40155;-75
2022/09/20 04:41:21;;;;;;;6.82;0.77;;;;;;;8.11;100.00;101896.53;2079606;28;20045;-75
2022/09/20 04:42:51;;;;;;;13.40;1.17;;;;;;;8.13;100.00;101905.41;2075092;28;41389;-75
2022/09/20 04:44:48;;;;;;;7.47;0.75;;;;;;;7.99;100.00;101902.72;2075772;28;20042;-75
2022/09/20 04:46:19;;;;;;;8.80;0.95;;;;;;;7.97;100.00;101900.06;2079172;28;20140;-75
2022/09/20 04:48:21;;;;;;;5.97;0.63;;;;;;;7.92;100.00;101906.25;2078477;28;29865;-75
2022/09/20 04:49:49;;;;;;;6.28;0.50;;;;;;;7.85;100.00;101905.34;2062816;28;26261;-75
2022/09/20 04:51:11;;;;;;;7.38;0.45;;;;;;;7.80;100.00;101907.09;2078192;28;36414;-74
2022/09/20 04:53:01;;;;;;;8.75;0.80;;;;;;;7.75;100.00;101903.50;2079660;28;38869;-75
2022/09/20 04:54:02;;;;;;;7.00;0.50;;;;;;;7.72;100.00;101903.53;2078631;28;31939;-75
2022/09/20 04:55:13;;;;;;;4.82;0.75;;;;;;;7.71;100.00;101902.59;2079525;28;26681;-76
2022/09/20 04:57:21;;;;;;;8.02;0.88;;;;;;;7.71;100.00;101904.38;2079296;28;37701;-75
2022/09/20 04:58:41;;;;;;;11.32;1.20;;;;;;;7.67;100.00;101915.94;2078715;28;37541;-75
2022/09/20 05:00:11;;;;;;;7.40;0.90;;;;;;;7.69;100.00;101908.81;2079499;28;20900;-75
2022/09/20 05:01:32;;;;;;;6.95;0.85;;;;;;;7.65;100.00;101914.13;2078979;28;33333;-75
2022/09/20 05:03:10;;;;;;;6.55;0.90;;;;;;;7.65;100.00;101916.81;2079406;28;30444;-76
2022/09/20 05:05:15;;;;;;;6.53;0.60;;;;;;;7.61;100.00;101922.13;2079753;28;32604;-75
2022/09/20 05:07:03;;;;;;;7.70;0.88;;;;;;;7.56;100.00;101921.22;2079453;28;20053;-75
2022/09/20 05:08:51;;;;;;;12.52;0.85;;;;;;;7.50;100.00;101919.41;2079083;28;41359;-75
2022/09/20 05:10:45;;;;;;;5.18;0.80;;;;;;;7.48;100.00;101914.94;2079878;28;20045;-75
2022/09/20 05:12:05;;;;;;;7.03;0.80;;;;;;;7.43;100.00;101914.91;2080581;28;20062;-76
2022/09/20 05:13:34;;;;;;;6.88;1.17;;;;;;;7.41;100.00;101922.91;2079041;28;34684;-75
2022/09/20 05:14:50;;;;;;;6.20;0.80;;;;;;;7.35;100.00;101922.84;2078658;28;20784;-76
2022/09/20 05:16:15;;;;;;;6.57;1.08;;;;;;;7.30;100.00;101915.72;2079409;28;37557;-76
2022/09/20 05:18:08;;;;;;;9.10;1.10;;;;;;;7.26;100.00;101915.69;2079498;28;32055;-75
2022/09/20 05:19:57;;;;;;;5.90;0.93;;;;;;;7.23;100.00;101921.00;2080294;28;40983;-76
2022/09/20 05:21:32;;;;;;;9.40;1.02;;;;;;;7.24;100.00;101917.44;2079592;28;31438;-76
2022/09/20 05:22:34;;;;;;;7.95;1.00;;;;;;;7.23;100.00;101920.09;2078511;28;40860;-77
2022/09/20 05:23:54;;;;;;;9.20;1.38;;;;;;;7.21;100.00;101921.88;2078774;28;32104;-76
2022/09/20 05:25:39;;;;;;;6.55;0.55;;;;;;;7.16;100.00;101935.16;2078642;28;38913;-76
2022/09/20 05:27:40;;;;;;;10.63;1.15;;;;;;;7.11;100.00;101928.91;2079143;28;38129;-76
2022/09/20 05:29:23;;;;;;;5.32;0.50;;;;;;;7.09;100.00;101933.34;2087205;28;38829;-75
2022/09/20 05:30:46;;;;;;;7.72;1.10;;;;;;;7.06;100.00;101933.31;2095764;28;35125;-76
2022/09/20 05:32:32;;;;;;;9.52;1.52;;;;;;;7.04;100.00;101932.41;2087969;28;35785;-76
2022/09/20 05:33:55;;;;;;;9.15;1.30;;;;;;;7.04;100.00;101935.06;2094165;28;37303;-77
2022/09/20 05:35:11;;;;;;;13.30;3.72;;;;;;;7.06;100.00;101938.63;2079760;28;33882;-77
2022/09/20 05:36:31;;;;;;;8.93;1.77;;;;;;;7.10;100.00;101943.09;2080945;28;20037;-77
2022/09/20 05:37:48;;;;;;;9.35;2.90;;;;;;;7.14;100.00;101942.25;2080785;28;37157;-77
2022/09/20 05:39:23;;;;;;;11.65;2.50;;;;;;;7.22;100.00;101942.31;2080184;28;36471;-77
2022/09/20 05:40:59;;;;;;;13.45;3.63;;;;;;;7.32;100.00;101938.84;2080080;28;36675;-77
2022/09/20 05:42:19;;;;;;;8.65;2.20;;;;;;;7.47;100.00;101935.38;2087992;28;34166;-76
2022/09/20 05:43:30;;;;;;;12.27;2.17;;;;;;;7.58;100.00;101938.09;2082057;28;32788;-77
2022/09/20 05:44:54;;;;;;;8.77;2.45;;;;;;;7.67;100.00;101943.47;2072267;28;21200;-77
2022/09/20 05:46:32;;;;;;;11.60;3.20;;;;;;;7.81;100.00;101938.22;2079323;28;40464;-77
2022/09/20 05:48:14;;;;;;;8.13;2.20;;;;;;;7.95;100.00;101939.16;2084394;28;20046;-77
2022/09/20 05:49:43;;;;;;;10.15;2.08;;;;;;;8.14;100.00;101942.75;2079017;28;34940;-77
2022/09/20 05:50:57;;;;;;;8.63;1.83;;;;;;;8.35;100.00;101949.06;2080188;28;37919;-77
2022/09/20 05:52:14;;;;;;;12.10;1.88;;;;;;;8.59;100.00;101942.91;2080817;28;31791;-77
2022/09/20 05:53:57;;;;;;;14.95;1.80;;;;;;;8.82;100.00;101936.72;2081053;28;20111;-77
2022/09/20 05:55:35;;;;;;;9.40;1.55;;;;;;;8.98;100.00;101949.16;2080778;28;33235;-77
2022/09/20 05:56:55;;;;;;;10.13;1.40;;;;;;;9.21;100.00;101940.25;2081319;28;27484;-77
2022/09/20 05:58:20;;;;;;;;;;;;;;;9.25;100.00;101944.69;2081043;28;33009;-77
2022/09/20 05:59:37;;;;;;;8.98;1.38;;;;;;;9.64;100.00;101943.72;2080924;28;27606;-77
2022/09/20 06:01:06;;;;;;;6.63;0.97;;;;;;;10.13;100.00;101942.63;2081012;28;20046;-77
2022/09/20 06:02:37;;;;;;;10.85;1.10;;;;;;;10.94;100.00;101941.25;2079383;28;38144;-77
2022/09/20 06:03:54;;;;;;;4.88;0.68;;;;;;;11.83;100.00;101942.16;2087329;28;40210;-77
2022/09/20 06:05:38;;;;;;;6.90;0.70;;;;;;;12.77;100.00;101944.41;2079767;28;34637;-77
2022/09/20 06:07:15;;;;;;;6.53;0.60;;;;;;;13.24;100.00;101935.59;2089702;28;35026;-77
2022/09/20 06:09:03;;;;;;;5.28;0.40;;;;;;;13.93;95.11;101932.47;2080497;28;20054;-77
2022/09/20 06:10:35;;;;;;;5.15;0.50;;;;;;;15.21;92.32;101932.16;2086439;28;33795;-77
2022/09/20 06:12:10;;;;;;;3.80;0.35;;;;;;;16.16;85.99;101935.84;2080781;28;35740;-75
2022/09/20 06:13:36;;;;;;;4.10;0.40;;;;;;;16.91;85.52;101938.88;2081076;28;20832;-77
2022/09/20 06:14:58;;;;;;;6.00;0.40;;;;;;;17.31;80.12;101933.94;2080211;28;25729;-77
2022/09/20 06:16:04;;;;;;;3.58;0.50;;;;;;;17.71;75.11;101933.38;2080355;28;20026;-77
2022/09/20 06:17:29;;;;;;;5.82;0.50;;;;;;;18.08;69.08;101929.31;2080047;28;35637;-74
2022/09/20 06:19:14;;;;;;;5.70;0.40;;;;;;;18.25;69.11;101925.94;2079866;28;36067;-75
2022/09/20 06:20:43;;;;;;;1.67;0.20;;;;;;;19.25;68.10;101921.81;2081247;28;33692;-74
2022/09/20 06:21:55;;;;;;;3.00;0.22;;;;;;;19.40;64.84;101916.69;2080123;28;20076;-74
2022/09/20 06:23:04;;;;;;;3.40;0.40;;;;;;;19.70;65.32;101928.00;2080429;28;20705;-75
2022/09/20 06:24:40;;;;;;;3.30;0.60;;;;;;;20.04;62.42;101926.47;2079258;28;34376;-75
2022/09/20 06:25:54;;;;;;;3.50;0.40;;;;;;;20.40;61.77;101922.94;2085189;28;38309;-75
2022/09/20 06:27:03;;;;;;;3.08;0.30;;;;;;;20.58;59.96;101926.59;2079547;28;34796;-76
2022/09/20 06:28:16;;;;;;;5.93;0.45;;;;;;;20.76;56.05;101933.00;2082211;28;33671;-76
2022/09/20 06:29:30;;;;;;;4.10;0.40;;;;;;;20.86;60.22;101933.44;2079860;28;35547;-76